Terminal Aerodrome Forecast
Issued by NWS

Home | Current Version | Previous Version | Text Only | Print | Product List | Glossary Off
Versions: 1 2 3 4 5 6 7 8 9 10 11 12 13 14

000
FTUS43 KICT 271720
TAFSLN
TAF
KSLN 271720Z 2718/2818 11009KT P6SM VCTS BKN050CB
     FM271900 06009KT P6SM VCTS BKN040CB
     FM272100 35010KT P6SM VCTS OVC050CB
     FM272300 35014KT P6SM BKN050
     FM280800 32009KT P6SM BKN090
     FM281000 32008KT P6SM SCT110=

USA.gov is the U.S. government's official web portal to all federal, state and local government web resources and services.